sensor_id;sensor_type;location;lat;lon;timestamp;P1;durP1;ratioP1;P2;durP2;ratioP2
40601;SDS011;26310;50.278;19.032;2022-09-09T04:36:06;14.83;;;10.90;;
40601;SDS011;26310;50.278;19.032;2022-09-09T04:41:09;15.30;;;10.53;;
40601;SDS011;26310;50.278;19.032;2022-09-09T04:46:12;12.97;;;9.80;;
40601;SDS011;26310;50.278;19.032;2022-09-09T04:51:16;13.67;;;9.97;;
40601;SDS011;26310;50.278;19.032;2022-09-09T04:56:19;14.50;;;10.00;;
40601;SDS011;26310;50.278;19.032;2022-09-09T05:01:23;15.20;;;10.33;;
40601;SDS011;26310;50.278;19.032;2022-09-09T05:06:26;20.03;;;12.13;;
40601;SDS011;26310;50.278;19.032;2022-09-09T05:11:29;15.97;;;11.03;;
40601;SDS011;26310;50.278;19.032;2022-09-09T05:16:39;20.00;;;11.97;;
40601;SDS011;26310;50.278;19.032;2022-09-09T05:21:42;14.43;;;10.73;;
40601;SDS011;26310;50.278;19.032;2022-09-09T05:26:45;16.77;;;11.17;;
40601;SDS011;26310;50.278;19.032;2022-09-09T05:31:47;16.20;;;10.53;;
40601;SDS011;26310;50.278;19.032;2022-09-09T05:36:51;14.93;;;10.47;;
40601;SDS011;26310;50.278;19.032;2022-09-09T05:41:54;14.73;;;10.00;;
40601;SDS011;26310;50.278;19.032;2022-09-09T05:46:57;12.70;;;9.43;;
40601;SDS011;26310;50.278;19.032;2022-09-09T05:52:00;16.07;;;10.30;;
40601;SDS011;26310;50.278;19.032;2022-09-09T05:57:05;15.33;;;10.93;;
40601;SDS011;26310;50.278;19.032;2022-09-09T06:02:08;13.20;;;9.93;;
40601;SDS011;26310;50.278;19.032;2022-09-09T06:07:11;13.47;;;9.83;;
40601;SDS011;26310;50.278;19.032;2022-09-09T06:12:15;14.90;;;11.53;;
40601;SDS011;26310;50.278;19.032;2022-09-09T06:17:18;13.80;;;9.87;;
40601;SDS011;26310;50.278;19.032;2022-09-09T06:22:21;15.23;;;10.60;;
40601;SDS011;26310;50.278;19.032;2022-09-09T06:27:24;14.13;;;10.70;;
40601;SDS011;26310;50.278;19.032;2022-09-09T06:32:26;15.77;;;9.93;;
40601;SDS011;26310;50.278;19.032;2022-09-09T06:37:29;12.60;;;9.60;;
40601;SDS011;26310;50.278;19.032;2022-09-09T06:42:32;13.27;;;8.77;;
40601;SDS011;26310;50.278;19.032;2022-09-09T06:47:35;11.70;;;9.37;;
40601;SDS011;26310;50.278;19.032;2022-09-09T06:52:37;13.17;;;9.27;;
40601;SDS011;26310;50.278;19.032;2022-09-09T06:57:40;16.50;;;10.50;;
40601;SDS011;26310;50.278;19.032;2022-09-09T07:02:43;10.33;;;8.87;;
40601;SDS011;26310;50.278;19.032;2022-09-09T07:07:46;9.37;;;7.30;;
40601;SDS011;26310;50.278;19.032;2022-09-09T07:12:52;9.30;;;6.70;;
40601;SDS011;26310;50.278;19.032;2022-09-09T07:17:55;8.67;;;6.70;;
40601;SDS011;26310;50.278;19.032;2022-09-09T07:23:02;7.50;;;5.87;;
40601;SDS011;26310;50.278;19.032;2022-09-09T07:28:04;8.80;;;6.20;;
40601;SDS011;26310;50.278;19.032;2022-09-09T07:33:09;6.97;;;6.23;;
40601;SDS011;26310;50.278;19.032;2022-09-09T07:38:12;6.60;;;5.20;;
40601;SDS011;26310;50.278;19.032;2022-09-09T07:43:14;10.53;;;6.67;;
40601;SDS011;26310;50.278;19.032;2022-09-09T07:48:20;18.47;;;11.33;;
40601;SDS011;26310;50.278;19.032;2022-09-09T07:53:22;11.13;;;7.70;;
40601;SDS011;26310;50.278;19.032;2022-09-09T07:58:25;16.50;;;12.23;;
40601;SDS011;26310;50.278;19.032;2022-09-09T08:03:28;8.23;;;6.87;;
40601;SDS011;26310;50.278;19.032;2022-09-09T08:08:30;11.67;;;7.57;;
40601;SDS011;26310;50.278;19.032;2022-09-09T08:13:34;8.77;;;6.40;;
40601;SDS011;26310;50.278;19.032;2022-09-09T08:18:38;5.37;;;4.43;;
40601;SDS011;26310;50.278;19.032;2022-09-09T08:23:41;6.50;;;5.63;;
40601;SDS011;26310;50.278;19.032;2022-09-09T08:28:45;8.23;;;5.43;;
40601;SDS011;26310;50.278;19.032;2022-09-09T08:33:48;6.63;;;4.80;;
40601;SDS011;26310;50.278;19.032;2022-09-09T08:38:55;5.60;;;4.60;;
40601;SDS011;26310;50.278;19.032;2022-09-09T08:44:01;5.40;;;3.83;;
40601;SDS011;26310;50.278;19.032;2022-09-09T08:54:51;6.93;;;4.20;;
40601;SDS011;26310;50.278;19.032;2022-09-09T08:59:54;5.77;;;4.30;;
40601;SDS011;26310;50.278;19.032;2022-09-09T09:10:38;5.53;;;3.50;;
40601;SDS011;26310;50.278;19.032;2022-09-09T09:15:48;4.43;;;3.57;;
40601;SDS011;26310;50.278;19.032;2022-09-09T09:21:00;4.93;;;3.28;;
40601;SDS011;26310;50.278;19.032;2022-09-09T09:26:12;6.43;;;2.83;;
40601;SDS011;26310;50.278;19.032;2022-09-09T09:31:14;3.00;;;2.70;;
40601;SDS011;26310;50.278;19.032;2022-09-09T09:36:17;5.20;;;2.70;;
40601;SDS011;26310;50.278;19.032;2022-09-09T09:41:30;3.17;;;2.40;;
40601;SDS011;26310;50.278;19.032;2022-09-09T09:46:51;2.42;;;2.10;;
40601;SDS011;26310;50.278;19.032;2022-09-09T09:51:59;2.95;;;1.90;;
40601;SDS011;26310;50.278;19.032;2022-09-09T09:57:12;3.10;;;2.35;;
40601;SDS011;26310;50.278;19.032;2022-09-09T10:02:17;3.92;;;2.25;;
40601;SDS011;26310;50.278;19.032;2022-09-09T10:07:22;2.15;;;1.95;;
40601;SDS011;26310;50.278;19.032;2022-09-09T10:34:55;2.65;;;2.00;;
40601;SDS011;26310;50.278;19.032;2022-09-09T10:40:50;2.00;;;1.88;;
40601;SDS011;26310;50.278;19.032;2022-09-09T10:51:01;2.20;;;1.98;;
40601;SDS011;26310;50.278;19.032;2022-09-09T10:56:16;2.88;;;1.80;;
40601;SDS011;26310;50.278;19.032;2022-09-09T11:06:51;1.83;;;1.55;;
40601;SDS011;26310;50.278;19.032;2022-09-09T11:11:56;5.45;;;1.80;;
40601;SDS011;26310;50.278;19.032;2022-09-09T11:17:02;1.33;;;1.23;;
40601;SDS011;26310;50.278;19.032;2022-09-09T11:27:20;1.90;;;1.50;;
40601;SDS011;26310;50.278;19.032;2022-09-09T11:43:02;2.25;;;1.60;;
40601;SDS011;26310;50.278;19.032;2022-09-09T11:48:22;2.88;;;1.50;;
40601;SDS011;26310;50.278;19.032;2022-09-09T11:53:27;2.33;;;1.63;;
40601;SDS011;26310;50.278;19.032;2022-09-09T11:58:31;1.92;;;1.52;;
40601;SDS011;26310;50.278;19.032;2022-09-09T12:08:51;3.88;;;1.67;;
40601;SDS011;26310;50.278;19.032;2022-09-09T12:13:57;2.28;;;1.50;;
40601;SDS011;26310;50.278;19.032;2022-09-09T12:19:04;2.80;;;1.63;;
40601;SDS011;26310;50.278;19.032;2022-09-09T12:24:17;2.63;;;1.67;;
40601;SDS011;26310;50.278;19.032;2022-09-09T12:29:41;2.25;;;1.70;;
40601;SDS011;26310;50.278;19.032;2022-09-09T12:34:55;2.35;;;1.90;;
40601;SDS011;26310;50.278;19.032;2022-09-09T12:40:06;2.33;;;1.65;;
40601;SDS011;26310;50.278;19.032;2022-09-09T12:45:23;1.65;;;1.55;;
40601;SDS011;26310;50.278;19.032;2022-09-09T12:50:32;3.08;;;1.65;;
40601;SDS011;26310;50.278;19.032;2022-09-09T12:55:37;3.08;;;2.20;;
40601;SDS011;26310;50.278;19.032;2022-09-09T13:00:48;2.00;;;1.80;;
40601;SDS011;26310;50.278;19.032;2022-09-09T13:05:54;2.92;;;1.80;;
40601;SDS011;26310;50.278;19.032;2022-09-09T13:11:03;1.95;;;1.70;;
40601;SDS011;26310;50.278;19.032;2022-09-09T13:16:19;3.53;;;1.33;;
40601;SDS011;26310;50.278;19.032;2022-09-09T13:21:35;2.88;;;1.60;;
40601;SDS011;26310;50.278;19.032;2022-09-09T13:26:39;2.05;;;1.52;;
40601;SDS011;26310;50.278;19.032;2022-09-09T13:31:42;3.90;;;1.67;;
40601;SDS011;26310;50.278;19.032;2022-09-09T13:36:46;1.88;;;1.50;;
40601;SDS011;26310;50.278;19.032;2022-09-09T13:41:50;1.50;;;1.40;;
40601;SDS011;26310;50.278;19.032;2022-09-09T13:47:04;3.03;;;1.80;;
40601;SDS011;26310;50.278;19.032;2022-09-09T13:52:18;2.50;;;1.27;;
40601;SDS011;26310;50.278;19.032;2022-09-09T13:57:22;1.67;;;1.58;;
40601;SDS011;26310;50.278;19.032;2022-09-09T14:02:26;1.85;;;1.50;;
40601;SDS011;26310;50.278;19.032;2022-09-09T14:07:29;2.35;;;1.60;;
40601;SDS011;26310;50.278;19.032;2022-09-09T14:12:32;2.03;;;1.60;;
40601;SDS011;26310;50.278;19.032;2022-09-09T14:17:34;2.05;;;1.67;;
40601;SDS011;26310;50.278;19.032;2022-09-09T14:22:37;1.77;;;1.67;;
40601;SDS011;26310;50.278;19.032;2022-09-09T14:27:43;2.58;;;1.60;;
40601;SDS011;26310;50.278;19.032;2022-09-09T14:32:47;1.75;;;1.63;;
40601;SDS011;26310;50.278;19.032;2022-09-09T14:37:50;1.90;;;1.38;;
40601;SDS011;26310;50.278;19.032;2022-09-09T14:42:54;1.88;;;1.50;;
40601;SDS011;26310;50.278;19.032;2022-09-09T14:47:57;2.05;;;1.70;;
40601;SDS011;26310;50.278;19.032;2022-09-09T14:53:00;2.25;;;1.58;;
40601;SDS011;26310;50.278;19.032;2022-09-09T14:58:03;1.55;;;1.30;;
40601;SDS011;26310;50.278;19.032;2022-09-09T15:03:07;2.63;;;1.55;;
40601;SDS011;26310;50.278;19.032;2022-09-09T15:08:12;2.25;;;1.77;;
40601;SDS011;26310;50.278;19.032;2022-09-09T15:13:16;2.28;;;1.75;;
40601;SDS011;26310;50.278;19.032;2022-09-09T15:18:20;2.08;;;1.58;;
40601;SDS011;26310;50.278;19.032;2022-09-09T15:23:22;2.20;;;1.48;;
40601;SDS011;26310;50.278;19.032;2022-09-09T15:28:25;3.85;;;1.50;;
40601;SDS011;26310;50.278;19.032;2022-09-09T15:33:28;3.35;;;1.80;;
40601;SDS011;26310;50.278;19.032;2022-09-09T15:38:30;2.53;;;1.60;;
40601;SDS011;26310;50.278;19.032;2022-09-09T15:43:33;2.20;;;1.80;;
40601;SDS011;26310;50.278;19.032;2022-09-09T15:48:37;2.42;;;1.80;;
40601;SDS011;26310;50.278;19.032;2022-09-09T15:53:40;2.20;;;1.70;;
40601;SDS011;26310;50.278;19.032;2022-09-09T15:58:43;1.83;;;1.60;;
40601;SDS011;26310;50.278;19.032;2022-09-09T16:03:46;2.83;;;1.83;;
40601;SDS011;26310;50.278;19.032;2022-09-09T16:08:52;3.80;;;1.77;;
40601;SDS011;26310;50.278;19.032;2022-09-09T16:13:56;4.07;;;2.30;;
40601;SDS011;26310;50.278;19.032;2022-09-09T16:19:02;1.90;;;1.70;;
40601;SDS011;26310;50.278;19.032;2022-09-09T16:24:08;3.33;;;1.80;;
40601;SDS011;26310;50.278;19.032;2022-09-09T16:29:13;2.65;;;1.85;;
40601;SDS011;26310;50.278;19.032;2022-09-09T16:34:17;3.10;;;2.17;;
40601;SDS011;26310;50.278;19.032;2022-09-09T16:39:20;3.88;;;2.17;;
40601;SDS011;26310;50.278;19.032;2022-09-09T16:44:23;2.97;;;1.80;;
40601;SDS011;26310;50.278;19.032;2022-09-09T16:49:27;2.25;;;1.85;;
40601;SDS011;26310;50.278;19.032;2022-09-09T16:54:30;2.70;;;2.17;;
40601;SDS011;26310;50.278;19.032;2022-09-09T16:59:33;3.33;;;2.20;;
40601;SDS011;26310;50.278;19.032;2022-09-09T17:04:35;3.03;;;1.77;;
40601;SDS011;26310;50.278;19.032;2022-09-09T17:09:38;1.90;;;1.70;;
40601;SDS011;26310;50.278;19.032;2022-09-09T17:14:41;2.88;;;1.92;;
40601;SDS011;26310;50.278;19.032;2022-09-09T17:19:44;3.28;;;2.00;;
40601;SDS011;26310;50.278;19.032;2022-09-09T17:24:46;1.73;;;1.60;;
40601;SDS011;26310;50.278;19.032;2022-09-09T17:29:49;2.90;;;1.80;;
40601;SDS011;26310;50.278;19.032;2022-09-09T17:34:52;1.70;;;1.53;;
40601;SDS011;26310;50.278;19.032;2022-09-09T17:39:55;1.83;;;1.50;;
40601;SDS011;26310;50.278;19.032;2022-09-09T17:44:59;1.57;;;1.43;;
40601;SDS011;26310;50.278;19.032;2022-09-09T17:50:02;2.53;;;1.70;;
40601;SDS011;26310;50.278;19.032;2022-09-09T17:55:06;1.73;;;1.60;;
40601;SDS011;26310;50.278;19.032;2022-09-09T18:00:10;3.77;;;2.93;;
40601;SDS011;26310;50.278;19.032;2022-09-09T18:05:14;5.17;;;2.60;;
40601;SDS011;26310;50.278;19.032;2022-09-09T18:10:16;5.45;;;2.70;;
40601;SDS011;26310;50.278;19.032;2022-09-09T18:15:19;6.05;;;2.70;;
40601;SDS011;26310;50.278;19.032;2022-09-09T18:20:43;3.67;;;2.57;;
40601;SDS011;26310;50.278;19.032;2022-09-09T18:25:46;5.72;;;3.20;;
40601;SDS011;26310;50.278;19.032;2022-09-09T18:30:49;6.27;;;3.40;;
40601;SDS011;26310;50.278;19.032;2022-09-09T18:35:51;5.50;;;3.30;;
40601;SDS011;26310;50.278;19.032;2022-09-09T18:40:57;5.20;;;3.70;;
40601;SDS011;26310;50.278;19.032;2022-09-09T18:46:03;5.40;;;3.40;;
40601;SDS011;26310;50.278;19.032;2022-09-09T18:51:07;9.27;;;5.95;;
40601;SDS011;26310;50.278;19.032;2022-09-09T18:56:11;14.20;;;6.15;;
40601;SDS011;26310;50.278;19.032;2022-09-09T19:01:14;10.63;;;5.67;;
40601;SDS011;26310;50.278;19.032;2022-09-09T19:06:18;8.13;;;5.80;;
40601;SDS011;26310;50.278;19.032;2022-09-09T19:11:25;10.73;;;7.00;;
40601;SDS011;26310;50.278;19.032;2022-09-09T19:16:29;15.25;;;9.63;;
40601;SDS011;26310;50.278;19.032;2022-09-09T19:21:34;14.63;;;8.70;;
40601;SDS011;26310;50.278;19.032;2022-09-09T19:26:39;16.73;;;8.90;;
40601;SDS011;26310;50.278;19.032;2022-09-09T19:31:44;14.63;;;8.33;;
40601;SDS011;26310;50.278;19.032;2022-09-09T19:37:08;12.25;;;7.10;;
40601;SDS011;26310;50.278;19.032;2022-09-09T19:42:10;12.57;;;7.10;;
40601;SDS011;26310;50.278;19.032;2022-09-09T19:47:13;15.17;;;7.47;;
40601;SDS011;26310;50.278;19.032;2022-09-09T19:52:16;12.23;;;7.87;;
40601;SDS011;26310;50.278;19.032;2022-09-09T19:57:19;13.77;;;8.47;;
40601;SDS011;26310;50.278;19.032;2022-09-09T20:02:23;12.40;;;7.32;;
40601;SDS011;26310;50.278;19.032;2022-09-09T20:07:26;12.07;;;8.27;;
40601;SDS011;26310;50.278;19.032;2022-09-09T20:12:28;10.27;;;7.60;;
40601;SDS011;26310;50.278;19.032;2022-09-09T20:17:31;13.07;;;8.23;;
40601;SDS011;26310;50.278;19.032;2022-09-09T20:22:34;12.50;;;7.93;;
40601;SDS011;26310;50.278;19.032;2022-09-09T20:27:36;11.57;;;7.17;;
40601;SDS011;26310;50.278;19.032;2022-09-09T20:32:39;10.10;;;7.43;;
40601;SDS011;26310;50.278;19.032;2022-09-09T20:37:42;11.70;;;7.25;;
40601;SDS011;26310;50.278;19.032;2022-09-09T20:42:45;11.33;;;7.30;;
40601;SDS011;26310;50.278;19.032;2022-09-09T20:47:48;12.50;;;7.23;;
40601;SDS011;26310;50.278;19.032;2022-09-09T20:52:51;9.83;;;6.87;;
40601;SDS011;26310;50.278;19.032;2022-09-09T20:57:53;12.93;;;7.25;;
40601;SDS011;26310;50.278;19.032;2022-09-09T21:02:59;13.37;;;7.53;;
40601;SDS011;26310;50.278;19.032;2022-09-09T21:08:02;9.45;;;7.03;;
40601;SDS011;26310;50.278;19.032;2022-09-09T21:13:05;14.07;;;7.53;;
40601;SDS011;26310;50.278;19.032;2022-09-09T21:18:08;14.27;;;7.20;;
40601;SDS011;26310;50.278;19.032;2022-09-09T21:23:12;9.18;;;6.97;;
40601;SDS011;26310;50.278;19.032;2022-09-09T21:28:15;11.60;;;8.40;;
40601;SDS011;26310;50.278;19.032;2022-09-09T21:33:18;15.60;;;7.68;;
40601;SDS011;26310;50.278;19.032;2022-09-09T21:38:23;13.20;;;7.97;;
40601;SDS011;26310;50.278;19.032;2022-09-09T21:43:26;21.03;;;7.93;;
40601;SDS011;26310;50.278;19.032;2022-09-09T21:48:28;11.70;;;7.37;;
40601;SDS011;26310;50.278;19.032;2022-09-09T21:53:32;8.97;;;7.43;;
40601;SDS011;26310;50.278;19.032;2022-09-09T21:58:35;10.97;;;7.37;;
40601;SDS011;26310;50.278;19.032;2022-09-09T22:03:38;11.07;;;6.87;;
40601;SDS011;26310;50.278;19.032;2022-09-09T22:08:43;11.17;;;6.50;;
40601;SDS011;26310;50.278;19.032;2022-09-09T22:13:47;16.17;;;7.20;;
40601;SDS011;26310;50.278;19.032;2022-09-09T22:18:54;11.57;;;7.57;;
40601;SDS011;26310;50.278;19.032;2022-09-09T22:23:59;11.13;;;8.17;;
40601;SDS011;26310;50.278;19.032;2022-09-09T22:29:03;11.70;;;7.57;;
40601;SDS011;26310;50.278;19.032;2022-09-09T22:34:06;9.93;;;7.77;;
40601;SDS011;26310;50.278;19.032;2022-09-09T22:39:09;13.83;;;7.90;;
40601;SDS011;26310;50.278;19.032;2022-09-09T22:44:11;11.53;;;7.77;;
40601;SDS011;26310;50.278;19.032;2022-09-09T22:49:15;10.40;;;7.53;;
40601;SDS011;26310;50.278;19.032;2022-09-09T22:54:17;11.63;;;7.93;;
40601;SDS011;26310;50.278;19.032;2022-09-09T22:59:23;11.70;;;7.23;;
40601;SDS011;26310;50.278;19.032;2022-09-09T23:04:27;12.23;;;7.00;;
40601;SDS011;26310;50.278;19.032;2022-09-09T23:09:30;11.60;;;6.83;;
40601;SDS011;26310;50.278;19.032;2022-09-09T23:14:32;10.57;;;7.17;;
40601;SDS011;26310;50.278;19.032;2022-09-09T23:19:35;11.27;;;6.97;;
40601;SDS011;26310;50.278;19.032;2022-09-09T23:24:38;11.10;;;7.03;;
40601;SDS011;26310;50.278;19.032;2022-09-09T23:29:40;10.00;;;6.87;;
